Friday, April 18, 2014
20:45 UTC
  |  Log In   |  Register Free
Airport Search:

Live Oak County Airport
(8T6)

Live Oak County Airport Diagram
No Airport Diagram Available

FAA data valid effective April 3, 2014 until May 29, 2014 (unless otherwise noted).

 
 
 
 
 
 
 
 
 
 
 
 
 
 

Current Aviation Weather for Live Oak County Airport (8T6)

The most recent METAR observation for KBEA was updated at: 1955 UTC
METAR Summary (Translated METAR)
KBEA
181955Z AUTO 04006KT 10SM SCT048 26/13 A3012 RMK AO2 T02620130
KRBO
(35.4 nm SE from KBEA)
181955Z AUTO 10008KT 050V120 10SM SCT038 SCT047 BKN055 27/15 A3012 RMK AO2 T02670148
TAF Summary (Translated TAF)
KCRP
(38.7 nm SE from KBEA)
181731Z 1818/1918 06012KT P6SM BKN060 FM182100 12012KT P6SM SCT050 FM190100 13008KT P6SM BKN250 FM191000 VRB03KT P6SM SCT015 FM191500 12012KT P6SM SCT035
  Airport Weather Conditions for 8T6

Current weather conditions are
not available for 8T6


The nearest NOAA weather station
is at BEA, (17.2 nm SE from 8T6)
  
 Current Weather at BEA
79° F
Partly Cloudy
Northeast winds at 6.9 mph
BEA NOAA Radar

Pressure: 30.12 in
Humidity: 44%
Wind: Northeast at 6.9 MPH (6 KT)
Dew Point: 55.4°F
Visibility: 10.00 mi


Airport Weather Forecast for 8T6

Translated METAR and TAF for KBEA
Translated METAR for KBEA (2045 UTC 18 April 2014)
found at http://aviationweather.gov/adds/metars/
 
METAR text: KBEA 182035Z AUTO 04003KT 10SM SCT050 BKN060 27/12 A3010 RMK AO2 T02670124
Conditions at: KBEA (BEEVILLE MUNI , TX, US) observed 2035 UTC 18 April 2014
Temperature: 26.7°C (80°F)
Dewpoint: 12.4°C (54°F) [RH = 41%]
Pressure (altimeter): 30.10 inches Hg (1019.4 mb)
Winds: from the NE (40 degrees) at 3 MPH (3 knots; 1.6 m/s)
Visibility: 10 or more miles (16+ km)
Ceiling: 6000 feet AGL
Clouds: scattered clouds at 5000 feet AGL
broken clouds at 6000 feet AGL
Weather: automated observation with no human augmentation;
there may or may not be significant weather present at this time
Translated TAF for KBEA

There is no translated TAF available for this airport

Find All Airport Services Find A Hotel Find A Rental Car Find A Golf Course Find A Restaurant $100 Hamburger



FBO's on the Field
FBO Company Facility Photos Services Transportation Aviation Fuel Prices: Prices include tax
Catering Weather Repair Courtesy Rental Type 100LL JetA JetA+ MOGAS 8087
 
Live Oak Co. Airport

This FBO has not yet been rated
FS:Avfuel
Last Updated: Apr-14
Login to update fuel prices
SS:
Contact Live Oak Co. AirportMore FBO Information
 
Add another FBO Facility Photos Catering Weather Repair Courtesy Rental Type 100LL JetA JetA+ MOGAS 8087
Services Transportation Aviation Fuel Prices: Prices include tax


GlobalAir.com Airport Resource Center model-print
model-print
model-print
model-print